Airfield :
LOGIN :

Register | Disclaimer

   EN    FR    IT 

 










Legend :    VFR   Marginal VFR   IFR   Intensive IFR   Very Intensive IFR
Visi :
Ceiling :
>= 8 km
>= 3000ft
5 to 8 km
1000 to 3000 ft
1500m to 5 km
500 to 1000 ft
800 to 1500m
200 to 500 ft
< 800m
< 200 ft
Symbols :   Thunderstorms  Fog  Heavy snow  Heavy precipitations  Wind > 20 kt
SIGMETs :     Misc.  Thunderstorms  Icing  Turbulence  Mountain Waves  Volcanic Ashes






- Airport Elevation : 302 ft


LFPM - Melun Villaroche

CURRENT METAR :
  • 161900Z AUTO 17014KT 9999 SCT027 OVC033 13/12 Q1009

EXPIRED METARs :
  • 161830Z AUTO 18016KT 9999 BKN011 OVC029 13/12 Q1009
  • 161800Z AUTO 18015KT 9000 DZ BKN012 OVC017 14/12 Q1009
  • 161730Z AUTO 18015KT 8000 -RADZ BKN017 BKN026 OVC031 14/12 Q1009
  • 161700Z AUTO 18011KT 9999 BKN031 BKN039 OVC045 14/12 Q1009
  • 161630Z AUTO 19012KT 9999 -RA SCT032/// BKN049/// BKN060/// ///TCU 15/12 Q1009
  • 161600Z AUTO 20013KT 9999 -RA BKN034/// OVC056/// ///TCU 15/13 Q1009

Expired Forecast.
ATIS : +33 1 64 14 28 44



MET'MAP, your aeronautical weather chart ! - Copyright ORBIFLY December 2007 - Disclaimer

ORBIFLY MET'MAP TEAM :

Programming & Development : Alexandra Zaïnal
Concept & Development : Baudouin d'Aumeries
Co-Development & Prog : Marc-Olivier Méhu
Technical & hardware support : Manuel Goepfert

Contact : metmap@orbifly.com




SOURCES & CREDITS :

   NOAA